IWA10LA SULS-SGAS
Flight info
| Callsign | IWA10LA |
|---|---|
| Flight time | 1h 32m |
| Altitude | 37000 |
| Route | VUKAS UM402 KONTO KONTO |
| Aircraft | A319/M-SBDE3FGHIRWY/LB2 |
Departure
| Time | 2026-05-04 20:25 |
|---|---|
| Airport | Capitan Corbeta CA Curbelo International Airport (SULS) |
Arrival
| Time | 2026-05-04 21:57 |
|---|---|
| Airport | Silvio Pettirossi International Airport (SGAS) |
| Time | Latitude | Longitude | Altitude | Speed | Heading |
|---|---|---|---|---|---|
| 2026-05-04 19:51 | -34.85941 | -55.09853 | 90 ft | 0 kts | 342° |
| 2026-05-04 20:19 | -34.85936 | -55.09854 | 92 ft | 3 kts | 342° |
| 2026-05-04 20:19 | -34.85905 | -55.09854 | 89 ft | 6 kts | 19° |
| 2026-05-04 20:20 | -34.85863 | -55.09830 | 89 ft | 7 kts | 8° |
| 2026-05-04 20:20 | -34.85809 | -55.09833 | 90 ft | 8 kts | 26° |
| 2026-05-04 20:20 | -34.85783 | -55.09766 | 89 ft | 10 kts | 72° |
| 2026-05-04 20:20 | -34.85762 | -55.09681 | 92 ft | 11 kts | 73° |
| 2026-05-04 20:21 | -34.85736 | -55.09584 | 94 ft | 12 kts | 72° |
| 2026-05-04 20:21 | -34.85712 | -55.09492 | 93 ft | 11 kts | 72° |
| 2026-05-04 20:21 | -34.85604 | -55.09403 | 94 ft | 13 kts | 358° |
| 2026-05-04 20:22 | -34.85522 | -55.09398 | 95 ft | 10 kts | 28° |
| 2026-05-04 20:22 | -34.85492 | -55.09320 | 95 ft | 11 kts | 72° |
| 2026-05-04 20:22 | -34.85469 | -55.09230 | 96 ft | 12 kts | 72° |
| 2026-05-04 20:22 | -34.85443 | -55.09131 | 96 ft | 13 kts | 72° |
| 2026-05-04 20:23 | -34.85447 | -55.09039 | 97 ft | 10 kts | 114° |
| 2026-05-04 20:23 | -34.85419 | -55.09010 | 97 ft | 6 kts | 315° |
| 2026-05-04 20:23 | -34.85420 | -55.09047 | 99 ft | 0 kts | 251° |
| 2026-05-04 20:24 | -34.85421 | -55.09048 | 99 ft | 2 kts | 251° |
| 2026-05-04 20:24 | -34.85499 | -55.09345 | 95 ft | 78 kts | 252° |
| 2026-05-04 20:24 | -34.85741 | -55.10268 | 91 ft | 147 kts | 251° |
| 2026-05-04 20:24 | -34.86066 | -55.11525 | 577 ft | 158 kts | 252° |
| 2026-05-04 20:25 | -34.86391 | -55.12777 | 1346 ft | 156 kts | 255° |
| 2026-05-04 20:25 | -34.86683 | -55.14111 | 1852 ft | 173 kts | 268° |
| 2026-05-04 20:25 | -34.86255 | -55.15536 | 2195 ft | 195 kts | 306° |
| 2026-05-04 20:25 | -34.85399 | -55.16957 | 2602 ft | 221 kts | 304° |
| 2026-05-04 20:26 | -34.84481 | -55.18586 | 3220 ft | 242 kts | 303° |
| 2026-05-04 20:26 | -34.83533 | -55.20312 | 4191 ft | 247 kts | 303° |
| 2026-05-04 20:26 | -34.82577 | -55.22067 | 5233 ft | 250 kts | 303° |
| 2026-05-04 20:26 | -34.81613 | -55.23842 | 6293 ft | 251 kts | 303° |
| 2026-05-04 20:27 | -34.80646 | -55.25627 | 7254 ft | 254 kts | 302° |
| 2026-05-04 20:27 | -34.79663 | -55.27436 | 8166 ft | 259 kts | 302° |
| 2026-05-04 20:27 | -34.78657 | -55.29290 | 9083 ft | 265 kts | 301° |
| 2026-05-04 20:27 | -34.77637 | -55.31175 | 9990 ft | 270 kts | 301° |
| 2026-05-04 20:28 | -34.76581 | -55.33125 | 10471 ft | 290 kts | 300° |
| 2026-05-04 20:28 | -34.75428 | -55.35253 | 10903 ft | 309 kts | 300° |
| 2026-05-04 20:28 | -34.74226 | -55.37457 | 11661 ft | 315 kts | 300° |
| 2026-05-04 20:28 | -34.73006 | -55.39688 | 12524 ft | 318 kts | 300° |
| 2026-05-04 20:29 | -34.71773 | -55.41939 | 13397 ft | 321 kts | 299° |
| 2026-05-04 20:29 | -34.70534 | -55.44206 | 14194 ft | 323 kts | 299° |
| 2026-05-04 20:29 | -34.69289 | -55.46486 | 14925 ft | 325 kts | 299° |
| 2026-05-04 20:29 | -34.68031 | -55.48790 | 15614 ft | 329 kts | 299° |
| 2026-05-04 20:30 | -34.66758 | -55.51118 | 16316 ft | 333 kts | 299° |
| 2026-05-04 20:30 | -34.65467 | -55.53475 | 17027 ft | 336 kts | 299° |
| 2026-05-04 20:30 | -34.64165 | -55.55851 | 17731 ft | 339 kts | 298° |
| 2026-05-04 20:30 | -34.62850 | -55.58249 | 18399 ft | 343 kts | 298° |
| 2026-05-04 20:31 | -34.61539 | -55.60639 | 19002 ft | 346 kts | 298° |
| 2026-05-04 20:31 | -34.60198 | -55.63084 | 19616 ft | 349 kts | 298° |
| 2026-05-04 20:31 | -34.58845 | -55.65551 | 20233 ft | 352 kts | 298° |
| 2026-05-04 20:31 | -34.57479 | -55.68040 | 20841 ft | 356 kts | 298° |
| 2026-05-04 20:32 | -34.56099 | -55.70547 | 21440 ft | 359 kts | 297° |
| 2026-05-04 20:32 | -34.54703 | -55.73080 | 22026 ft | 362 kts | 297° |
| 2026-05-04 20:32 | -34.53291 | -55.75643 | 22588 ft | 366 kts | 297° |
| 2026-05-04 20:32 | -34.51889 | -55.78192 | 23152 ft | 369 kts | 297° |
| 2026-05-04 20:33 | -34.50456 | -55.80794 | 23679 ft | 373 kts | 297° |
| 2026-05-04 20:33 | -34.49011 | -55.83414 | 24140 ft | 376 kts | 297° |
| 2026-05-04 20:33 | -34.47552 | -55.86052 | 24604 ft | 378 kts | 297° |
| 2026-05-04 20:33 | -34.46076 | -55.88718 | 25064 ft | 381 kts | 297° |
| 2026-05-04 20:34 | -34.44594 | -55.91390 | 25510 ft | 383 kts | 297° |
| 2026-05-04 20:34 | -34.43105 | -55.94081 | 25950 ft | 386 kts | 297° |
| 2026-05-04 20:34 | -34.41604 | -55.96789 | 26386 ft | 388 kts | 297° |
| 2026-05-04 20:34 | -34.40090 | -55.99515 | 26781 ft | 391 kts | 297° |
| 2026-05-04 20:35 | -34.38566 | -56.02257 | 27186 ft | 394 kts | 297° |
| 2026-05-04 20:35 | -34.37033 | -56.05018 | 27616 ft | 396 kts | 297° |
| 2026-05-04 20:35 | -34.35271 | -56.07641 | 28034 ft | 409 kts | 308° |
| 2026-05-04 20:35 | -34.33004 | -56.09812 | 28443 ft | 423 kts | 321° |
| 2026-05-04 20:36 | -34.30298 | -56.11360 | 28848 ft | 440 kts | 334° |
| 2026-05-04 20:36 | -34.27258 | -56.12160 | 29229 ft | 454 kts | 344° |
| 2026-05-04 20:36 | -34.24165 | -56.12686 | 29591 ft | 456 kts | 345° |
| 2026-05-04 20:36 | -34.21004 | -56.13216 | 29962 ft | 459 kts | 345° |
| 2026-05-04 20:37 | -34.17835 | -56.13750 | 30279 ft | 462 kts | 344° |
| 2026-05-04 20:37 | -34.14643 | -56.14292 | 30586 ft | 464 kts | 344° |
| 2026-05-04 20:37 | -34.11426 | -56.14840 | 30887 ft | 466 kts | 344° |
| 2026-05-04 20:37 | -34.08210 | -56.15387 | 31181 ft | 469 kts | 344° |
| 2026-05-04 20:38 | -34.04967 | -56.15938 | 31463 ft | 471 kts | 343° |
| 2026-05-04 20:38 | -34.01706 | -56.16491 | 31742 ft | 474 kts | 343° |
| 2026-05-04 20:38 | -33.98439 | -56.17044 | 32130 ft | 474 kts | 343° |
| 2026-05-04 20:38 | -33.95173 | -56.17596 | 32543 ft | 473 kts | 343° |
| 2026-05-04 20:39 | -33.91910 | -56.18144 | 32941 ft | 473 kts | 343° |
| 2026-05-04 20:39 | -33.88688 | -56.18687 | 33330 ft | 473 kts | 343° |
| 2026-05-04 20:39 | -33.85391 | -56.19246 | 33744 ft | 473 kts | 342° |
| 2026-05-04 20:39 | -33.82173 | -56.19794 | 34128 ft | 472 kts | 342° |
| 2026-05-04 20:40 | -33.78921 | -56.20348 | 34498 ft | 472 kts | 342° |
| 2026-05-04 20:40 | -33.75671 | -56.20897 | 34879 ft | 471 kts | 342° |
| 2026-05-04 20:40 | -33.72426 | -56.21442 | 35254 ft | 470 kts | 342° |
| 2026-05-04 20:40 | -33.69198 | -56.21981 | 35624 ft | 469 kts | 342° |
| 2026-05-04 20:41 | -33.65974 | -56.22518 | 35980 ft | 468 kts | 342° |
| 2026-05-04 20:41 | -33.62757 | -56.23055 | 36306 ft | 467 kts | 342° |
| 2026-05-04 20:41 | -33.59537 | -56.23596 | 36626 ft | 466 kts | 342° |
| 2026-05-04 20:41 | -33.56329 | -56.24134 | 36897 ft | 466 kts | 342° |
| 2026-05-04 20:42 | -33.49950 | -56.25205 | 36950 ft | 463 kts | 342° |
| 2026-05-04 20:42 | -33.43573 | -56.26281 | 36950 ft | 462 kts | 342° |
| 2026-05-04 20:43 | -33.37211 | -56.27353 | 36953 ft | 462 kts | 342° |
| 2026-05-04 20:43 | -33.30833 | -56.28413 | 36951 ft | 462 kts | 342° |
| 2026-05-04 20:44 | -33.24502 | -56.29458 | 36953 ft | 462 kts | 342° |
| 2026-05-04 20:44 | -33.18132 | -56.30518 | 36934 ft | 462 kts | 342° |
| 2026-05-04 20:45 | -33.11763 | -56.31581 | 36954 ft | 461 kts | 342° |
| 2026-05-04 20:45 | -33.05398 | -56.32635 | 36964 ft | 461 kts | 342° |
| 2026-05-04 20:46 | -32.99037 | -56.33679 | 36934 ft | 461 kts | 342° |
| 2026-05-04 20:46 | -32.92717 | -56.34729 | 36948 ft | 460 kts | 342° |
| 2026-05-04 20:47 | -32.86371 | -56.35786 | 36957 ft | 460 kts | 343° |
| 2026-05-04 20:47 | -32.80020 | -56.36836 | 36963 ft | 460 kts | 343° |
| 2026-05-04 20:48 | -32.73677 | -56.37878 | 36954 ft | 460 kts | 343° |
| 2026-05-04 20:48 | -32.67343 | -56.38914 | 36962 ft | 460 kts | 343° |
| 2026-05-04 20:49 | -32.61036 | -56.39951 | 36968 ft | 459 kts | 343° |
| 2026-05-04 20:49 | -32.54699 | -56.40997 | 36943 ft | 459 kts | 343° |
| 2026-05-04 20:50 | -32.48366 | -56.42031 | 36958 ft | 459 kts | 343° |
| 2026-05-04 20:50 | -32.42042 | -56.43064 | 36966 ft | 459 kts | 343° |
| 2026-05-04 20:51 | -32.35719 | -56.44102 | 36969 ft | 458 kts | 343° |
| 2026-05-04 20:51 | -32.29407 | -56.45138 | 36958 ft | 458 kts | 343° |
| 2026-05-04 20:52 | -32.23144 | -56.46162 | 36969 ft | 458 kts | 343° |
| 2026-05-04 20:52 | -32.16832 | -56.47180 | 36972 ft | 458 kts | 343° |
| 2026-05-04 20:53 | -32.10515 | -56.48200 | 36953 ft | 457 kts | 343° |
| 2026-05-04 20:53 | -32.04220 | -56.49225 | 36966 ft | 457 kts | 343° |
| 2026-05-04 20:54 | -31.97922 | -56.50250 | 36971 ft | 456 kts | 343° |
| 2026-05-04 20:54 | -31.91626 | -56.51269 | 36975 ft | 456 kts | 343° |
| 2026-05-04 20:55 | -31.85359 | -56.52278 | 36958 ft | 456 kts | 343° |
| 2026-05-04 20:55 | -31.79071 | -56.53287 | 36969 ft | 456 kts | 343° |
| 2026-05-04 20:56 | -31.72787 | -56.54298 | 36973 ft | 456 kts | 343° |
| 2026-05-04 20:56 | -31.66510 | -56.55317 | 36973 ft | 455 kts | 343° |
| 2026-05-04 20:57 | -31.60228 | -56.56328 | 36980 ft | 455 kts | 343° |
| 2026-05-04 20:57 | -31.53945 | -56.57338 | 36988 ft | 455 kts | 343° |
| 2026-05-04 20:58 | -31.47666 | -56.58343 | 36971 ft | 455 kts | 344° |
| 2026-05-04 20:58 | -31.41426 | -56.59342 | 36961 ft | 454 kts | 344° |
| 2026-05-04 20:59 | -31.35159 | -56.60356 | 36970 ft | 454 kts | 344° |
| 2026-05-04 20:59 | -31.28894 | -56.61352 | 36973 ft | 454 kts | 344° |
| 2026-05-04 21:00 | -31.22624 | -56.62338 | 36962 ft | 454 kts | 344° |
| 2026-05-04 21:00 | -31.16364 | -56.63330 | 36966 ft | 454 kts | 344° |
| 2026-05-04 21:01 | -31.10100 | -56.64331 | 36968 ft | 454 kts | 344° |
| 2026-05-04 21:01 | -31.03834 | -56.65326 | 36970 ft | 454 kts | 344° |
| 2026-05-04 21:02 | -30.97564 | -56.66319 | 36949 ft | 454 kts | 344° |
| 2026-05-04 21:02 | -30.92352 | -56.67144 | 36953 ft | 455 kts | 344° |
| 2026-05-04 21:03 | -30.85058 | -56.68299 | 36962 ft | 455 kts | 344° |
| 2026-05-04 21:03 | -30.78781 | -56.69284 | 36949 ft | 455 kts | 344° |
| 2026-05-04 21:04 | -30.73564 | -56.70105 | 36950 ft | 455 kts | 344° |
| 2026-05-04 21:04 | -30.67279 | -56.71094 | 36958 ft | 456 kts | 344° |
| 2026-05-04 21:05 | -30.60980 | -56.72088 | 36965 ft | 456 kts | 344° |
| 2026-05-04 21:05 | -30.54736 | -56.73076 | 36940 ft | 456 kts | 344° |
| 2026-05-04 21:06 | -30.48439 | -56.74060 | 36954 ft | 456 kts | 344° |
| 2026-05-04 21:06 | -30.42132 | -56.75043 | 36961 ft | 457 kts | 344° |
| 2026-05-04 21:07 | -30.35831 | -56.76030 | 36971 ft | 457 kts | 344° |
| 2026-05-04 21:07 | -30.29522 | -56.77022 | 36964 ft | 457 kts | 343° |
| 2026-05-04 21:08 | -30.23258 | -56.78006 | 36962 ft | 457 kts | 343° |
| 2026-05-04 21:08 | -30.16956 | -56.78995 | 36968 ft | 457 kts | 344° |
| 2026-05-04 21:09 | -30.10656 | -56.79973 | 36941 ft | 457 kts | 344° |
| 2026-05-04 21:09 | -30.04359 | -56.80968 | 36948 ft | 457 kts | 343° |
| 2026-05-04 21:10 | -29.98060 | -56.81987 | 36957 ft | 457 kts | 343° |
| 2026-05-04 21:10 | -29.91763 | -56.83003 | 36962 ft | 457 kts | 343° |
| 2026-05-04 21:11 | -29.85467 | -56.84023 | 36953 ft | 457 kts | 343° |
| 2026-05-04 21:11 | -29.79163 | -56.85037 | 36960 ft | 457 kts | 343° |
| 2026-05-04 21:12 | -29.72907 | -56.86034 | 36969 ft | 456 kts | 343° |
| 2026-05-04 21:12 | -29.66613 | -56.87034 | 36973 ft | 456 kts | 343° |
| 2026-05-04 21:13 | -29.60317 | -56.88036 | 36952 ft | 456 kts | 343° |
| 2026-05-04 21:13 | -29.54061 | -56.89036 | 36957 ft | 456 kts | 343° |
| 2026-05-04 21:14 | -29.47758 | -56.90030 | 36958 ft | 457 kts | 343° |
| 2026-05-04 21:14 | -29.41447 | -56.90993 | 36960 ft | 457 kts | 344° |
| 2026-05-04 21:15 | -29.35139 | -56.91949 | 36962 ft | 457 kts | 343° |
| 2026-05-04 21:15 | -29.28839 | -56.92923 | 36963 ft | 457 kts | 343° |
| 2026-05-04 21:16 | -29.22538 | -56.93895 | 36962 ft | 457 kts | 343° |
| 2026-05-04 21:16 | -29.16237 | -56.94863 | 36942 ft | 457 kts | 343° |
| 2026-05-04 21:17 | -29.09976 | -56.95816 | 36945 ft | 457 kts | 343° |
| 2026-05-04 21:17 | -29.03622 | -56.96782 | 36947 ft | 457 kts | 343° |
| 2026-05-04 21:18 | -28.97354 | -56.97735 | 36949 ft | 457 kts | 343° |
| 2026-05-04 21:18 | -28.91038 | -56.98699 | 36935 ft | 458 kts | 343° |
| 2026-05-04 21:19 | -28.84706 | -56.99645 | 36946 ft | 458 kts | 343° |
| 2026-05-04 21:19 | -28.78381 | -57.00598 | 36951 ft | 459 kts | 343° |
| 2026-05-04 21:20 | -28.72040 | -57.01557 | 36927 ft | 459 kts | 343° |
| 2026-05-04 21:20 | -28.65745 | -57.02507 | 36949 ft | 459 kts | 343° |
| 2026-05-04 21:21 | -28.59405 | -57.03459 | 36953 ft | 459 kts | 343° |
| 2026-05-04 21:21 | -28.53074 | -57.04411 | 36954 ft | 459 kts | 343° |
| 2026-05-04 21:22 | -28.46741 | -57.05365 | 36941 ft | 459 kts | 343° |
| 2026-05-04 21:22 | -28.40404 | -57.06312 | 36938 ft | 459 kts | 343° |
| 2026-05-04 21:23 | -28.34078 | -57.07262 | 36943 ft | 459 kts | 343° |
| 2026-05-04 21:23 | -28.27739 | -57.08208 | 36943 ft | 459 kts | 343° |
| 2026-05-04 21:24 | -28.21453 | -57.09143 | 36919 ft | 459 kts | 343° |
| 2026-05-04 21:24 | -28.15128 | -57.10090 | 36927 ft | 459 kts | 343° |
| 2026-05-04 21:25 | -28.08785 | -57.11044 | 36933 ft | 459 kts | 343° |
| 2026-05-04 21:25 | -28.02457 | -57.11993 | 36941 ft | 459 kts | 343° |
| 2026-05-04 21:26 | -27.96119 | -57.12932 | 36927 ft | 459 kts | 343° |
| 2026-05-04 21:26 | -27.89790 | -57.13867 | 36932 ft | 459 kts | 343° |
| 2026-05-04 21:27 | -27.83451 | -57.14814 | 36942 ft | 459 kts | 343° |
| 2026-05-04 21:27 | -27.77147 | -57.15757 | 36939 ft | 459 kts | 343° |
| 2026-05-04 21:28 | -27.70810 | -57.16688 | 36916 ft | 459 kts | 343° |
| 2026-05-04 21:28 | -27.64466 | -57.17617 | 36932 ft | 460 kts | 343° |
| 2026-05-04 21:29 | -27.58122 | -57.18553 | 36932 ft | 460 kts | 343° |
| 2026-05-04 21:29 | -27.51778 | -57.19497 | 36915 ft | 460 kts | 343° |
| 2026-05-04 21:30 | -27.45423 | -57.20434 | 36932 ft | 460 kts | 343° |
| 2026-05-04 21:30 | -27.39068 | -57.21355 | 36936 ft | 460 kts | 343° |
| 2026-05-04 21:31 | -27.29537 | -57.22712 | 36945 ft | 461 kts | 343° |
| 2026-05-04 21:32 | -27.23214 | -57.23614 | 36930 ft | 461 kts | 343° |
| 2026-05-04 21:32 | -27.16831 | -57.24535 | 36665 ft | 461 kts | 343° |
| 2026-05-04 21:32 | -27.13648 | -57.24993 | 36403 ft | 461 kts | 343° |
| 2026-05-04 21:33 | -27.10466 | -57.25450 | 36148 ft | 461 kts | 343° |
| 2026-05-04 21:33 | -27.07284 | -57.25908 | 35904 ft | 461 kts | 343° |
| 2026-05-04 21:33 | -27.04098 | -57.26364 | 35660 ft | 462 kts | 344° |
| 2026-05-04 21:33 | -27.00905 | -57.26818 | 35035 ft | 464 kts | 344° |
| 2026-05-04 21:34 | -26.97673 | -57.27285 | 34048 ft | 470 kts | 345° |
| 2026-05-04 21:34 | -26.94414 | -57.27754 | 32797 ft | 474 kts | 345° |
| 2026-05-04 21:34 | -26.91124 | -57.28227 | 31510 ft | 479 kts | 346° |
| 2026-05-04 21:34 | -26.87820 | -57.28694 | 30416 ft | 479 kts | 347° |
| 2026-05-04 21:35 | -26.84515 | -57.29159 | 29297 ft | 478 kts | 347° |
| 2026-05-04 21:35 | -26.81238 | -57.29616 | 28370 ft | 470 kts | 347° |
| 2026-05-04 21:35 | -26.78072 | -57.30139 | 27448 ft | 460 kts | 342° |
| 2026-05-04 21:35 | -26.75063 | -57.31182 | 26579 ft | 447 kts | 332° |
| 2026-05-04 21:36 | -26.72326 | -57.32741 | 25722 ft | 436 kts | 324° |
| 2026-05-04 21:36 | -26.69741 | -57.34488 | 24848 ft | 432 kts | 325° |
| 2026-05-04 21:36 | -26.67178 | -57.36211 | 24001 ft | 428 kts | 326° |
| 2026-05-04 21:36 | -26.64633 | -57.37916 | 23121 ft | 425 kts | 326° |
| 2026-05-04 21:37 | -26.62109 | -57.39604 | 22256 ft | 420 kts | 326° |
| 2026-05-04 21:37 | -26.59614 | -57.41272 | 21495 ft | 414 kts | 326° |
| 2026-05-04 21:37 | -26.57155 | -57.42914 | 20774 ft | 409 kts | 326° |
| 2026-05-04 21:37 | -26.54730 | -57.44534 | 20075 ft | 404 kts | 326° |
| 2026-05-04 21:38 | -26.52359 | -57.46117 | 19415 ft | 399 kts | 326° |
| 2026-05-04 21:38 | -26.49989 | -57.47700 | 18762 ft | 394 kts | 326° |
| 2026-05-04 21:38 | -26.47651 | -57.49270 | 18102 ft | 389 kts | 325° |
| 2026-05-04 21:38 | -26.45361 | -57.50855 | 17359 ft | 385 kts | 325° |
| 2026-05-04 21:39 | -26.43052 | -57.52340 | 16601 ft | 383 kts | 332° |
| 2026-05-04 21:39 | -26.40535 | -57.53315 | 15865 ft | 383 kts | 345° |
| 2026-05-04 21:39 | -26.37890 | -57.53659 | 15141 ft | 383 kts | 357° |
| 2026-05-04 21:39 | -26.35230 | -57.53628 | 14418 ft | 380 kts | 359° |
| 2026-05-04 21:40 | -26.32603 | -57.53593 | 13719 ft | 376 kts | 359° |
| 2026-05-04 21:40 | -26.30020 | -57.53563 | 12949 ft | 373 kts | 359° |
| 2026-05-04 21:40 | -26.27447 | -57.53535 | 12247 ft | 367 kts | 359° |
| 2026-05-04 21:40 | -26.24919 | -57.53507 | 11723 ft | 356 kts | 359° |
| 2026-05-04 21:41 | -26.22515 | -57.53479 | 11587 ft | 335 kts | 359° |
| 2026-05-04 21:41 | -26.20255 | -57.53452 | 11474 ft | 316 kts | 359° |
| 2026-05-04 21:41 | -26.18112 | -57.53429 | 11352 ft | 303 kts | 359° |
| 2026-05-04 21:41 | -26.16019 | -57.53409 | 11233 ft | 299 kts | 359° |
| 2026-05-04 21:42 | -26.13947 | -57.53389 | 11116 ft | 297 kts | 359° |
| 2026-05-04 21:42 | -26.11881 | -57.53367 | 11004 ft | 296 kts | 359° |
| 2026-05-04 21:42 | -26.09823 | -57.53345 | 10889 ft | 295 kts | 359° |
| 2026-05-04 21:42 | -26.07770 | -57.53367 | 10773 ft | 293 kts | 354° |
| 2026-05-04 21:43 | -26.05767 | -57.53580 | 10655 ft | 291 kts | 353° |
| 2026-05-04 21:43 | -26.03753 | -57.53794 | 10534 ft | 290 kts | 353° |
| 2026-05-04 21:43 | -26.01749 | -57.54002 | 10345 ft | 288 kts | 353° |
| 2026-05-04 21:43 | -25.99758 | -57.54207 | 10117 ft | 286 kts | 353° |
| 2026-05-04 21:44 | -25.97783 | -57.54413 | 9887 ft | 284 kts | 353° |
| 2026-05-04 21:44 | -25.95823 | -57.54621 | 9645 ft | 281 kts | 353° |
| 2026-05-04 21:44 | -25.93882 | -57.54825 | 9392 ft | 280 kts | 353° |
| 2026-05-04 21:44 | -25.91946 | -57.55024 | 9139 ft | 278 kts | 354° |
| 2026-05-04 21:45 | -25.90027 | -57.55219 | 8890 ft | 277 kts | 354° |
| 2026-05-04 21:45 | -25.88109 | -57.55415 | 8643 ft | 275 kts | 353° |
| 2026-05-04 21:45 | -25.86205 | -57.55612 | 8396 ft | 274 kts | 353° |
| 2026-05-04 21:45 | -25.84317 | -57.55810 | 8148 ft | 272 kts | 353° |
| 2026-05-04 21:46 | -25.82436 | -57.56006 | 7900 ft | 270 kts | 353° |
| 2026-05-04 21:46 | -25.80568 | -57.56202 | 7666 ft | 269 kts | 353° |
| 2026-05-04 21:46 | -25.78712 | -57.56397 | 7428 ft | 267 kts | 353° |
| 2026-05-04 21:46 | -25.76887 | -57.56588 | 7193 ft | 266 kts | 353° |
| 2026-05-04 21:47 | -25.75051 | -57.56779 | 6960 ft | 265 kts | 353° |
| 2026-05-04 21:47 | -25.73228 | -57.56968 | 6727 ft | 259 kts | 353° |
| 2026-05-04 21:47 | -25.71464 | -57.57149 | 6494 ft | 251 kts | 354° |
| 2026-05-04 21:47 | -25.69753 | -57.57323 | 6274 ft | 242 kts | 354° |
| 2026-05-04 21:48 | -25.68111 | -57.57491 | 6106 ft | 232 kts | 354° |
| 2026-05-04 21:48 | -25.66534 | -57.57653 | 5936 ft | 223 kts | 353° |
| 2026-05-04 21:48 | -25.65018 | -57.57809 | 5763 ft | 216 kts | 353° |
| 2026-05-04 21:48 | -25.63531 | -57.57962 | 5597 ft | 213 kts | 353° |
| 2026-05-04 21:49 | -25.62076 | -57.58112 | 5457 ft | 212 kts | 353° |
| 2026-05-04 21:49 | -25.60594 | -57.58268 | 5312 ft | 211 kts | 353° |
| 2026-05-04 21:49 | -25.59156 | -57.58420 | 5171 ft | 210 kts | 353° |
| 2026-05-04 21:49 | -25.57706 | -57.58570 | 5028 ft | 209 kts | 353° |
| 2026-05-04 21:50 | -25.56260 | -57.58720 | 4877 ft | 208 kts | 353° |
| 2026-05-04 21:50 | -25.54826 | -57.58870 | 4750 ft | 206 kts | 353° |
| 2026-05-04 21:50 | -25.53396 | -57.58983 | 4633 ft | 206 kts | 360° |
| 2026-05-04 21:50 | -25.51976 | -57.58733 | 4509 ft | 208 kts | 9° |
| 2026-05-04 21:51 | -25.50561 | -57.58381 | 4384 ft | 208 kts | 9° |
| 2026-05-04 21:51 | -25.49145 | -57.58035 | 4260 ft | 208 kts | 9° |
| 2026-05-04 21:51 | -25.47725 | -57.57688 | 4148 ft | 209 kts | 10° |
| 2026-05-04 21:51 | -25.46311 | -57.57346 | 4058 ft | 209 kts | 10° |
| 2026-05-04 21:52 | -25.44891 | -57.57001 | 4023 ft | 209 kts | 10° |
| 2026-05-04 21:52 | -25.43461 | -57.56654 | 3873 ft | 212 kts | 10° |
| 2026-05-04 21:52 | -25.42037 | -57.56307 | 3586 ft | 205 kts | 11° |
| 2026-05-04 21:52 | -25.40682 | -57.55976 | 3326 ft | 194 kts | 11° |
| 2026-05-04 21:53 | -25.39409 | -57.55665 | 3093 ft | 182 kts | 11° |
| 2026-05-04 21:53 | -25.38606 | -57.55468 | 2926 ft | 175 kts | 11° |
| 2026-05-04 21:53 | -25.37111 | -57.55102 | 2641 ft | 159 kts | 11° |
| 2026-05-04 21:53 | -25.36383 | -57.54925 | 2495 ft | 158 kts | 11° |
| 2026-05-04 21:54 | -25.34971 | -57.54581 | 2235 ft | 156 kts | 11° |
| 2026-05-04 21:54 | -25.34270 | -57.54411 | 2086 ft | 155 kts | 12° |
| 2026-05-04 21:54 | -25.33223 | -57.54155 | 1885 ft | 152 kts | 12° |
| 2026-05-04 21:54 | -25.32254 | -57.53921 | 1686 ft | 135 kts | 12° |
| 2026-05-04 21:55 | -25.31372 | -57.53708 | 1515 ft | 126 kts | 12° |
| 2026-05-04 21:55 | -25.30524 | -57.53502 | 1340 ft | 124 kts | 12° |
| 2026-05-04 21:55 | -25.29681 | -57.53296 | 1176 ft | 123 kts | 13° |
| 2026-05-04 21:55 | -25.28841 | -57.53092 | 1019 ft | 125 kts | 13° |
| 2026-05-04 21:56 | -25.27988 | -57.52883 | 840 ft | 125 kts | 14° |
| 2026-05-04 21:56 | -25.27134 | -57.52677 | 655 ft | 127 kts | 14° |
| 2026-05-04 21:56 | -25.26269 | -57.52469 | 509 ft | 127 kts | 15° |
| 2026-05-04 21:56 | -25.25404 | -57.52259 | 329 ft | 127 kts | 15° |
| 2026-05-04 21:57 | -25.24611 | -57.52061 | 290 ft | 100 kts | 12° |
| 2026-05-04 21:57 | -25.24099 | -57.51940 | 283 ft | 53 kts | 12° |
| 2026-05-04 21:57 | -25.23776 | -57.51862 | 276 ft | 45 kts | 12° |
| 2026-05-04 21:57 | -25.23486 | -57.51792 | 273 ft | 41 kts | 12° |
| 2026-05-04 21:58 | -25.23247 | -57.51735 | 270 ft | 26 kts | 12° |
| 2026-05-04 21:58 | -25.23113 | -57.51702 | 269 ft | 13 kts | 13° |
| 2026-05-04 21:58 | -25.23061 | -57.51635 | 268 ft | 12 kts | 96° |
| 2026-05-04 21:58 | -25.23080 | -57.51538 | 268 ft | 13 kts | 103° |
| 2026-05-04 21:59 | -25.23148 | -57.51494 | 269 ft | 13 kts | 188° |
| 2026-05-04 21:59 | -25.23234 | -57.51515 | 270 ft | 13 kts | 193° |
| 2026-05-04 21:59 | -25.23320 | -57.51536 | 271 ft | 13 kts | 192° |
| 2026-05-04 21:59 | -25.23406 | -57.51556 | 272 ft | 13 kts | 192° |
| 2026-05-04 22:00 | -25.23494 | -57.51578 | 273 ft | 13 kts | 193° |
| 2026-05-04 22:00 | -25.23585 | -57.51601 | 275 ft | 14 kts | 192° |
| 2026-05-04 22:00 | -25.23687 | -57.51626 | 276 ft | 16 kts | 192° |
| 2026-05-04 22:00 | -25.23799 | -57.51653 | 277 ft | 17 kts | 192° |
| 2026-05-04 22:01 | -25.23912 | -57.51680 | 279 ft | 14 kts | 191° |
| 2026-05-04 22:01 | -25.23997 | -57.51645 | 280 ft | 14 kts | 147° |
| 2026-05-04 22:01 | -25.24082 | -57.51599 | 281 ft | 14 kts | 180° |
| 2026-05-04 22:01 | -25.24167 | -57.51619 | 282 ft | 10 kts | 191° |
| 2026-05-04 22:02 | -25.24212 | -57.51594 | 282 ft | 7 kts | 110° |
| 2026-05-04 22:02 | -25.24223 | -57.51570 | 285 ft | 3 kts | 122° |
| 2026-05-04 22:02 | -25.24232 | -57.51554 | 282 ft | 1 kts | 124° |
| 2026-05-04 22:02 | -25.24235 | -57.51551 | 282 ft | 0 kts | 124° |